Time;durP1;ratioP1;P1;durP2;ratioP2;P2;SDS_P1;SDS_P2;PMS_P1;PMS_P2;Temp;Humidity;BMP_temperature;BMP_pressure;BME280_temperature;BME280_humidity;BME280_pressure;Samples;Min_cycle;Max_cycle;Signal;HPM_P1;HPM_P2
2022/06/28 00:02:13;;;;;;;8.47;7.77;;;;;;;18.47;76.95;101538.09;5038190;28;20201;-75
2022/06/28 00:04:38;;;;;;;9.33;7.77;;;;;;;18.58;77.12;101545.00;5037667;28;20178;-73
2022/06/28 00:07:04;;;;;;;7.97;7.20;;;;;;;18.83;77.28;101542.97;5050705;28;20275;-74
2022/06/28 00:09:29;;;;;;;8.07;7.37;;;;;;;18.98;76.93;101552.50;5077023;28;20238;-76
2022/06/28 00:11:54;;;;;;;9.00;8.10;;;;;;;18.74;76.05;101545.72;5075593;28;20230;-76
2022/06/28 00:17:04;;;;;;;8.93;8.23;;;;;;;18.83;75.52;101535.94;5079127;28;20202;-78
2022/06/28 00:19:30;;;;;;;11.53;9.80;;;;;;;18.93;75.08;101541.13;5081402;28;20711;-76
2022/06/28 00:21:56;;;;;;;10.43;9.43;;;;;;;18.38;76.87;101543.47;5081296;28;20437;-77
2022/06/28 00:24:22;;;;;;;9.90;9.00;;;;;;;18.59;76.99;101546.75;5081256;28;20173;-76
2022/06/28 00:26:48;;;;;;;11.93;9.90;;;;;;;18.55;76.77;101547.69;5081062;28;20177;-76
2022/06/28 00:29:14;;;;;;;11.50;10.50;;;;;;;18.77;76.34;101545.69;5071502;28;20470;-78
2022/06/28 00:31:39;;;;;;;12.00;10.97;;;;;;;18.48;76.58;101547.78;5060930;28;20663;-78
2022/06/28 00:34:05;;;;;;;12.40;11.30;;;;;;;18.50;76.86;101551.25;5060938;28;20416;-80
2022/06/28 00:36:30;;;;;;;12.10;11.00;;;;;;;18.39;77.05;101549.59;5061286;28;20439;-79
2022/06/28 00:38:56;;;;;;;13.23;12.10;;;;;;;18.43;76.83;101549.56;5060824;28;20180;-78
2022/06/28 00:41:21;;;;;;;14.63;13.33;;;;;;;18.55;77.08;101551.22;5061582;28;20468;-74
2022/06/28 00:43:46;;;;;;;12.23;11.17;;;;;;;18.53;77.43;101558.25;5060472;28;20173;-72
2022/06/28 00:46:12;;;;;;;12.37;11.07;;;;;;;18.47;77.81;101559.22;5060723;28;20216;-72
2022/06/28 00:48:38;;;;;;;12.40;11.30;;;;;;;18.33;78.60;101566.38;5059824;28;20498;-72
2022/06/28 00:51:03;;;;;;;13.37;12.17;;;;;;;18.31;78.82;101573.47;5060877;28;20239;-74
2022/06/28 00:53:29;;;;;;;14.10;12.70;;;;;;;18.40;78.16;101583.03;5060396;28;20531;-75
2022/06/28 00:55:54;;;;;;;14.97;13.57;;;;;;;18.23;78.06;101577.94;5059971;28;20223;-73
2022/06/28 00:58:20;;;;;;;16.40;14.60;;;;;;;18.37;78.22;101581.28;5060744;28;20188;-73
2022/06/28 01:00:47;;;;;;;17.93;13.70;;;;;;;18.31;77.87;101584.88;5060788;28;20495;-75
2022/06/28 01:03:17;;;;;;;15.93;14.43;;;;;;;18.73;76.82;101580.97;5060407;28;20602;-75
2022/06/28 01:05:43;;;;;;;16.23;14.73;;;;;;;18.63;76.77;101590.72;5060646;28;20416;-74
2022/06/28 01:08:11;;;;;;;16.70;15.10;;;;;;;18.59;76.87;101578.44;5060264;28;20416;-72
2022/06/28 01:10:37;;;;;;;17.67;15.50;;;;;;;18.60;76.71;101583.72;5060258;28;20493;-73
2022/06/28 01:13:03;;;;;;;18.17;16.10;;;;;;;18.47;77.64;101597.94;5060149;28;20444;-72
2022/06/28 01:15:29;;;;;;;17.13;15.13;;;;;;;18.46;77.63;101597.06;5060076;28;20495;-72
2022/06/28 01:17:55;;;;;;;18.13;16.33;;;;;;;18.17;78.23;101599.94;5059281;28;20205;-73
2022/06/28 01:20:23;;;;;;;18.77;16.80;;;;;;;18.20;78.05;101597.31;5060315;28;20643;-73
2022/06/28 01:22:48;;;;;;;18.57;16.57;;;;;;;18.08;78.28;101603.53;5059921;28;20201;-76
2022/06/28 01:25:14;;;;;;;16.10;14.47;;;;;;;18.29;78.36;101598.97;5060206;28;20412;-77
2022/06/28 01:27:40;;;;;;;16.03;14.53;;;;;;;18.22;78.61;101589.38;5060357;28;20176;-74
2022/06/28 01:30:07;;;;;;;17.10;15.30;;;;;;;17.81;78.93;101589.63;5058971;28;20180;-76
2022/06/28 01:32:32;;;;;;;18.07;16.37;;;;;;;17.65;79.49;101598.53;5060014;28;20635;-76
2022/06/28 01:34:59;;;;;;;17.43;15.40;;;;;;;17.95;79.51;101597.47;5060256;28;20511;-75
2022/06/28 01:37:25;;;;;;;18.83;16.40;;;;;;;17.77;78.88;101593.19;5060034;28;20174;-76
2022/06/28 01:39:50;;;;;;;18.33;16.53;;;;;;;18.11;79.17;101592.09;5059153;28;20484;-75
2022/06/28 01:42:16;;;;;;;18.00;16.00;;;;;;;18.15;78.23;101594.69;5060199;28;20212;-74
2022/06/28 01:44:41;;;;;;;19.90;17.90;;;;;;;17.98;79.24;101593.94;5059809;28;20268;-74
2022/06/28 01:47:07;;;;;;;20.43;18.23;;;;;;;17.92;79.22;101601.91;5058797;28;20181;-75
2022/06/28 01:49:32;;;;;;;22.60;18.90;;;;;;;17.88;80.00;101600.16;5059315;28;20590;-75
2022/06/28 01:51:58;;;;;;;21.40;19.23;;;;;;;18.01;78.65;101604.50;5058795;28;20182;-74
2022/06/28 01:54:24;;;;;;;21.90;19.60;;;;;;;18.11;78.82;101611.44;5059571;28;20506;-73
2022/06/28 01:56:49;;;;;;;19.83;17.90;;;;;;;18.08;79.22;101608.81;5059822;28;20177;-74
2022/06/28 01:59:15;;;;;;;21.43;19.47;;;;;;;17.93;78.71;101604.53;5059550;28;20181;-75
2022/06/28 02:01:40;;;;;;;20.00;17.97;;;;;;;18.14;78.11;101619.34;5059163;28;20193;-75
2022/06/28 02:04:22;;;;;;;18.67;16.87;;;;;;;18.24;77.72;101620.13;5059570;28;20228;-77
2022/06/28 02:06:48;;;;;;;19.77;17.97;;;;;;;18.14;77.71;101623.72;5061226;28;20304;-75
2022/06/28 02:09:13;;;;;;;18.07;16.27;;;;;;;17.96;79.10;101615.06;5059852;28;20742;-75
2022/06/28 02:11:39;;;;;;;19.93;17.83;;;;;;;17.82;79.78;101612.50;5059339;28;20189;-76
2022/06/28 02:14:04;;;;;;;15.87;14.37;;;;;;;18.19;79.41;101606.09;5059003;28;20287;-75
2022/06/28 02:16:30;;;;;;;17.70;15.90;;;;;;;18.20;79.10;101605.22;5058971;28;20233;-76
2022/06/28 02:18:55;;;;;;;16.70;15.10;;;;;;;18.15;79.46;101613.16;5058645;28;20223;-76
2022/06/28 02:21:21;;;;;;;16.03;14.30;;;;;;;18.12;79.00;101610.56;5059005;28;20265;-76
2022/06/28 02:23:46;;;;;;;18.20;14.50;;;;;;;18.21;79.31;101612.22;5058891;28;20252;-76
2022/06/28 02:26:13;;;;;;;15.57;13.93;;;;;;;18.30;78.99;101603.38;5058910;28;20223;-77
2022/06/28 02:28:39;;;;;;;14.60;13.10;;;;;;;18.28;78.71;101595.47;5059262;28;20158;-76
2022/06/28 02:31:09;;;;;;;14.13;12.83;;;;;;;18.02;79.92;101595.66;5058814;28;20510;-75
2022/06/28 02:33:35;;;;;;;15.87;14.10;;;;;;;18.03;80.44;101599.19;5058534;28;20416;-76
2022/06/28 02:41:28;;;;;;;13.00;11.63;;;;;;;18.30;78.71;101606.00;5060058;28;20440;-78
2022/06/28 02:43:54;;;;;;;13.27;11.97;;;;;;;18.29;79.15;101598.97;5059892;28;20408;-78
2022/06/28 02:46:19;;;;;;;12.57;11.27;;;;;;;18.30;79.88;101604.22;5059770;28;20192;-79
2022/06/28 02:48:45;;;;;;;13.40;11.77;;;;;;;18.26;79.35;101597.22;5059012;28;20216;-78
2022/06/28 02:51:10;;;;;;;12.40;11.40;;;;;;;18.01;80.87;101600.09;5058542;28;20169;-76
2022/06/28 02:53:36;;;;;;;14.20;12.80;;;;;;;17.96;80.28;101593.09;5058005;28;20169;-76
2022/06/28 02:56:02;;;;;;;13.53;12.20;;;;;;;18.04;80.12;101588.63;5058682;28;20555;-77
2022/06/28 02:58:27;;;;;;;11.80;10.70;;;;;;;18.05;81.10;101587.75;5058032;28;20177;-76
2022/06/28 03:00:53;;;;;;;12.83;11.53;;;;;;;18.07;79.86;101585.09;5057922;28;20505;-77
2022/06/28 03:03:18;;;;;;;12.87;11.57;;;;;;;17.82;80.89;101591.41;5058301;28;20646;-77
2022/06/28 03:05:43;;;;;;;13.93;12.33;;;;;;;17.84;81.09;101591.38;5058268;28;20420;-79
2022/06/28 03:08:09;;;;;;;13.43;12.10;;;;;;;18.04;80.68;101591.28;5058179;28;20173;-77
2022/06/28 03:10:34;;;;;;;13.70;12.50;;;;;;;18.11;80.09;101590.31;5057292;28;20252;-77
2022/06/28 03:12:59;;;;;;;12.90;11.90;;;;;;;17.73;80.83;101603.78;5057980;28;20452;-76
2022/06/28 03:15:25;;;;;;;15.10;13.10;;;;;;;17.89;80.79;101607.16;5057635;28;20232;-75
2022/06/28 03:17:50;;;;;;;12.67;11.57;;;;;;;17.90;80.93;101611.56;5057630;28;20272;-75
2022/06/28 03:20:16;;;;;;;14.83;13.37;;;;;;;17.72;81.54;101626.63;5057901;28;20227;-76
2022/06/28 03:22:41;;;;;;;15.40;12.27;;;;;;;17.66;82.25;101626.66;5057586;28;20470;-74
2022/06/28 03:25:07;;;;;;;15.27;13.93;;;;;;;17.94;80.95;101632.69;5058599;28;20565;-78
2022/06/28 03:27:33;;;;;;;14.67;13.20;;;;;;;17.88;80.77;101634.44;5058107;28;20522;-78
2022/06/28 03:29:58;;;;;;;15.03;13.53;;;;;;;17.99;80.76;101643.19;5057825;28;20436;-76
2022/06/28 03:32:24;;;;;;;15.70;13.80;;;;;;;17.98;80.65;101649.34;5058445;28;20528;-76
2022/06/28 03:34:49;;;;;;;15.83;14.20;;;;;;;17.73;81.34;101649.47;5057675;28;20244;-76
2022/06/28 03:37:15;;;;;;;17.93;15.53;;;;;;;18.13;80.48;101651.91;5057720;28;20438;-75
2022/06/28 03:39:40;;;;;;;16.23;14.83;;;;;;;18.03;79.81;101659.88;5058302;28;20166;-76
2022/06/28 03:42:06;;;;;;;18.87;16.77;;;;;;;17.99;80.18;101661.66;5057847;28;20519;-76
2022/06/28 03:44:31;;;;;;;19.27;17.47;;;;;;;18.24;79.92;101653.56;5057805;28;20467;-76
2022/06/28 03:46:57;;;;;;;19.80;17.80;;;;;;;18.20;79.61;101655.38;5058313;28;20243;-76
2022/06/28 03:49:22;;;;;;;20.20;18.23;;;;;;;18.38;79.30;101659.63;5057865;28;20189;-76
2022/06/28 03:51:48;;;;;;;21.80;18.00;;;;;;;18.13;79.77;101667.72;5058913;28;20169;-76
2022/06/28 03:54:13;;;;;;;20.33;18.40;;;;;;;18.22;77.89;101665.91;5062255;28;20169;-70
2022/06/28 03:56:38;;;;;;;21.17;19.20;;;;;;;18.51;78.07;101676.25;5061764;28;20170;-72
2022/06/28 03:59:04;;;;;;;19.67;17.57;;;;;;;18.15;78.80;101673.84;5061604;28;20201;-72
2022/06/28 04:01:29;;;;;;;18.67;16.97;;;;;;;18.62;77.34;101677.03;5062189;28;20215;-73
2022/06/28 04:03:54;;;;;;;20.50;18.50;;;;;;;18.72;76.77;101685.72;5061462;28;20169;-72
2022/06/28 04:06:20;;;;;;;18.93;17.10;;;;;;;19.44;73.27;101677.94;5061619;28;20543;-72
2022/06/28 04:08:45;;;;;;;18.10;16.20;;;;;;;18.96;75.09;101683.78;5061257;28;20168;-72
2022/06/28 04:11:13;;;;;;;18.10;14.17;;;;;;;19.15;75.29;101687.97;5061548;28;20441;-74
2022/06/28 04:13:40;;;;;;;17.23;15.60;;;;;;;18.83;75.27;101702.38;5061354;28;20610;-75
2022/06/28 04:16:05;;;;;;;17.90;16.13;;;;;;;18.68;76.02;101699.84;5061437;28;20539;-69
2022/06/28 04:18:30;;;;;;;20.43;17.00;;;;;;;18.59;76.43;101694.66;5061615;28;20430;-72
2022/06/28 04:20:56;;;;;;;17.27;15.67;;;;;;;18.96;74.78;101699.63;5061566;28;20269;-71
2022/06/28 04:23:22;;;;;;;17.83;16.13;;;;;;;18.80;75.04;101715.59;5061181;28;20205;-71
2022/06/28 04:25:47;;;;;;;17.33;15.70;;;;;;;19.03;75.63;101709.25;5061056;28;20205;-71
2022/06/28 04:28:13;;;;;;;20.43;18.47;;;;;;;19.51;74.54;101708.72;5061842;28;20157;-71
2022/06/28 04:30:39;;;;;;;17.97;16.17;;;;;;;19.32;72.92;101715.97;5061410;28;20539;-71
2022/06/28 04:33:04;;;;;;;17.33;15.87;;;;;;;19.22;74.56;101717.00;5060150;28;20422;-72
2022/06/28 04:35:30;;;;;;;16.90;15.30;;;;;;;19.15;73.50;101718.81;5061496;28;20546;-72
2022/06/28 04:37:55;;;;;;;17.60;15.80;;;;;;;19.41;73.09;101713.25;5060976;28;20166;-71
2022/06/28 04:40:20;;;;;;;16.23;14.83;;;;;;;19.15;73.31;101727.63;5061144;28;20169;-71
2022/06/28 04:42:46;;;;;;;17.03;15.50;;;;;;;19.09;75.11;101733.00;5061449;28;20212;-70
2022/06/28 04:45:11;;;;;;;15.10;13.80;;;;;;;19.62;72.18;101727.09;5060868;28;20300;-71
2022/06/28 04:47:37;;;;;;;15.47;14.07;;;;;;;19.63;71.43;101729.75;5043473;28;20173;-71
2022/06/28 04:50:02;;;;;;;15.70;14.20;;;;;;;19.37;71.67;101722.09;5061435;28;20174;-72
2022/06/28 04:52:28;;;;;;;15.87;14.30;;;;;;;19.32;72.41;101734.50;5060643;28;20161;-73
2022/06/28 04:54:53;;;;;;;16.97;15.50;;;;;;;18.85;74.06;101742.84;5060952;28;20171;-72
2022/06/28 04:57:19;;;;;;;17.63;16.00;;;;;;;18.42;76.00;101745.81;5061157;28;20177;-72
2022/06/28 04:59:44;;;;;;;19.17;17.37;;;;;;;18.72;75.20;101737.69;5060853;28;20204;-72
2022/06/28 05:02:10;;;;;;;18.50;16.70;;;;;;;18.76;75.32;101744.69;5060553;28;20201;-71
2022/06/28 05:04:35;;;;;;;18.40;16.83;;;;;;;18.56;75.73;101755.41;5059492;28;20169;-72
2022/06/28 05:07:01;;;;;;;20.37;18.53;;;;;;;18.54;75.93;101752.78;5060392;28;20174;-71
2022/06/28 05:09:26;;;;;;;19.67;17.80;;;;;;;18.73;75.90;101750.88;5060373;28;20176;-72
2022/06/28 05:11:52;;;;;;;20.63;18.93;;;;;;;18.99;74.54;101747.16;5060982;28;20168;-72
2022/06/28 05:14:17;;;;;;;20.57;18.60;;;;;;;18.39;76.18;101751.13;5060133;28;20248;-71
2022/06/28 05:16:42;;;;;;;20.63;18.73;;;;;;;18.79;74.58;101739.38;5060086;28;20236;-72
2022/06/28 05:19:08;;;;;;;20.60;18.70;;;;;;;19.00;74.80;101738.34;5060835;28;20173;-71
2022/06/28 05:21:33;;;;;;;22.63;20.27;;;;;;;18.97;74.80;101733.97;5059852;28;20173;-71
2022/06/28 05:23:58;;;;;;;21.23;19.43;;;;;;;18.69;75.13;101738.59;5060013;28;20192;-72
2022/06/28 05:26:27;;;;;;;23.67;21.40;;;;;;;18.60;74.79;101734.25;5060656;28;20295;-71
2022/06/28 05:28:52;;;;;;;23.27;21.07;;;;;;;18.92;74.46;101733.13;5059914;28;20531;-72
2022/06/28 05:31:17;;;;;;;25.40;20.13;;;;;;;19.20;73.50;101732.88;5060088;28;20474;-72
2022/06/28 05:33:43;;;;;;;19.80;17.80;;;;;;;19.30;73.12;101728.38;5060353;28;20182;-72
2022/06/28 05:36:08;;;;;;;17.80;16.30;;;;;;;20.37;70.13;101725.22;5059827;28;20259;-72
2022/06/28 05:38:33;;;;;;;17.40;15.80;;;;;;;22.83;60.89;101717.59;5060032;28;20169;-72
2022/06/28 05:40:59;;;;;;;14.53;13.37;;;;;;;23.14;58.11;101715.03;5060276;28;20177;-72
2022/06/28 05:43:24;;;;;;;13.17;11.90;;;;;;;22.37;60.37;101716.97;5057802;28;20205;-71
2022/06/28 05:45:49;;;;;;;13.07;12.10;;;;;;;21.77;61.99;101719.19;5051785;28;20177;-71
2022/06/28 05:48:15;;;;;;;13.10;12.00;;;;;;;21.99;61.50;101714.25;5060283;28;20527;-72
2022/06/28 05:50:40;;;;;;;13.40;12.03;;;;;;;23.87;55.38;101705.81;5059732;28;20814;-71
2022/06/28 05:53:06;;;;;;;12.40;11.20;;;;;;;22.76;58.45;101713.34;5058929;28;20288;-71
2022/06/28 05:55:31;;;;;;;14.77;13.57;;;;;;;24.03;55.05;101705.34;5060135;28;20192;-72
2022/06/28 05:57:57;;;;;;;14.10;12.90;;;;;;;22.49;58.95;101711.34;5059844;28;20606;-73
2022/06/28 06:00:22;;;;;;;13.10;11.77;;;;;;;21.65;61.72;101717.66;5055588;28;20178;-72
2022/06/28 06:02:48;;;;;;;13.50;12.40;;;;;;;21.09;63.94;101717.84;5056501;28;20202;-71
2022/06/28 06:05:13;;;;;;;11.60;10.70;;;;;;;20.70;65.19;101720.28;5058939;28;20181;-72
2022/06/28 06:07:39;;;;;;;13.27;12.17;;;;;;;20.76;65.31;101720.19;5059478;28;20231;-72
2022/06/28 06:10:05;;;;;;;15.87;14.47;;;;;;;20.71;65.32;101715.88;5059874;28;20176;-71
2022/06/28 06:12:30;;;;;;;14.47;13.07;;;;;;;20.52;65.99;101714.38;5057619;28;20181;-71
2022/06/28 06:14:55;;;;;;;13.83;12.67;;;;;;;20.57;66.62;101716.09;5057740;28;20491;-71
2022/06/28 06:17:21;;;;;;;13.00;12.00;;;;;;;19.98;67.59;101725.75;5059807;28;20502;-73
2022/06/28 06:19:47;;;;;;;13.10;11.90;;;;;;;20.08;68.34;101725.66;5059352;28;20211;-71
2022/06/28 06:22:12;;;;;;;14.10;12.80;;;;;;;20.44;66.98;101723.34;5050047;28;20219;-72
2022/06/28 06:24:38;;;;;;;12.40;11.40;;;;;;;20.25;66.53;101720.97;5056643;28;20182;-71
2022/06/28 06:27:04;;;;;;;12.37;11.40;;;;;;;20.79;65.34;101725.44;5054104;28;20272;-71
2022/06/28 06:29:29;;;;;;;11.73;10.63;;;;;;;20.30;66.31;101726.22;5039053;28;20162;-71
2022/06/28 06:31:55;;;;;;;12.80;11.60;;;;;;;20.53;66.22;101728.50;5043646;28;20179;-70
2022/06/28 06:34:20;;;;;;;13.30;11.20;;;;;;;20.69;65.87;101739.78;5058250;28;20204;-71
2022/06/28 06:36:46;;;;;;;12.80;11.70;;;;;;;20.44;65.42;101729.50;5058410;28;20243;-72
2022/06/28 06:39:12;;;;;;;12.67;11.13;;;;;;;19.47;67.99;101744.03;5059176;28;20173;-72
2022/06/28 06:41:38;;;;;;;13.57;12.27;;;;;;;19.75;67.61;101739.28;5058482;28;20554;-72
2022/06/28 06:44:03;;;;;;;13.80;12.50;;;;;;;19.89;67.43;101746.19;5058246;28;20471;-71
2022/06/28 06:46:29;;;;;;;14.33;13.03;;;;;;;20.04;66.52;101759.25;5055872;28;20558;-72
2022/06/28 06:48:54;;;;;;;12.73;11.30;;;;;;;20.92;63.65;101751.72;5041641;28;20180;-71
2022/06/28 06:51:20;;;;;;;13.13;11.87;;;;;;;21.58;62.29;101754.97;5057992;28;20424;-71
2022/06/28 06:53:45;;;;;;;11.17;10.27;;;;;;;22.69;58.72;101744.53;5059100;28;20191;-71
2022/06/28 06:56:11;;;;;;;11.10;9.80;;;;;;;25.15;50.53;101731.88;5058477;28;20182;-72
2022/06/28 06:58:37;;;;;;;9.10;8.30;;;;;;;25.81;48.25;101729.44;5057967;28;20522;-72
2022/06/28 07:01:02;;;;;;;9.53;8.73;;;;;;;27.01;45.80;101738.91;5056172;28;20216;-71
2022/06/28 07:03:28;;;;;;;11.90;8.97;;;;;;;24.95;50.07;101740.59;5050719;28;20222;-70
2022/06/28 07:05:53;;;;;;;9.10;8.30;;;;;;;25.52;49.33;101739.44;5043879;28;20221;-71
2022/06/28 07:08:19;;;;;;;9.20;8.37;;;;;;;23.83;52.89;101748.56;5058225;28;20166;-71
2022/06/28 07:10:45;;;;;;;9.20;8.40;;;;;;;23.01;55.25;101754.31;5053690;28;20428;-72
2022/06/28 07:13:10;;;;;;;9.10;8.20;;;;;;;25.55;47.38;101747.34;5053586;28;20466;-71
2022/06/28 07:15:36;;;;;;;8.00;7.20;;;;;;;25.72;47.38;101753.84;5052581;28;20607;-71
2022/06/28 07:18:02;;;;;;;8.80;8.00;;;;;;;26.19;46.17;101760.97;5041416;28;20504;-71
2022/06/28 07:20:28;;;;;;;9.00;8.13;;;;;;;26.95;44.47;101755.22;5048334;28;20551;-73
2022/06/28 07:22:53;;;;;;;9.23;8.43;;;;;;;26.66;44.88;101768.84;5052228;28;20525;-72
2022/06/28 07:25:19;;;;;;;7.50;6.90;;;;;;;27.96;41.96;101770.34;5046275;28;20181;-72
2022/06/28 07:27:44;;;;;;;7.63;6.83;;;;;;;27.74;42.38;101763.31;5052599;28;20282;-72
2022/06/28 07:30:10;;;;;;;9.57;7.97;;;;;;;27.37;42.71;101771.22;5056766;28;20186;-72
2022/06/28 07:32:36;;;;;;;7.00;6.40;;;;;;;25.50;46.69;101769.78;5044393;28;20212;-72
2022/06/28 07:35:01;;;;;;;7.13;6.53;;;;;;;24.78;47.96;101763.38;5051379;28;20192;-72
2022/06/28 07:37:26;;;;;;;7.07;6.37;;;;;;;26.78;44.07;101769.28;5052826;28;20182;-71
2022/06/28 07:39:52;;;;;;;7.00;6.40;;;;;;;26.22;45.87;101771.53;5046457;28;20220;-72
2022/06/28 07:42:17;;;;;;;8.17;6.90;;;;;;;25.93;44.39;101770.00;5054774;28;20289;-71
2022/06/28 07:44:43;;;;;;;5.80;5.20;;;;;;;28.00;39.73;101770.16;5052269;28;20190;-71
2022/06/28 07:47:08;;;;;;;5.27;4.77;;;;;;;28.84;38.00;101764.25;5047486;28;20186;-71
2022/06/28 07:52:36;;;;;;;4.87;4.37;;;;;;;28.49;36.36;101769.56;5051502;28;20223;-72
2022/06/28 07:55:04;;;;;;;5.27;3.80;;;;;;;28.51;36.24;101773.06;5056987;28;20470;-73
2022/06/28 07:57:29;;;;;;;4.40;4.00;;;;;;;28.70;36.60;101775.72;5057130;28;20438;-72
2022/06/28 07:59:55;;;;;;;6.37;4.00;;;;;;;28.68;36.12;101772.22;5056454;28;20853;-72
2022/06/28 08:02:20;;;;;;;4.10;3.70;;;;;;;28.80;36.48;101775.25;5057068;28;20507;-71
2022/06/28 08:04:46;;;;;;;4.10;3.13;;;;;;;29.38;34.40;101776.75;5055175;28;20268;-73
2022/06/28 08:07:12;;;;;;;4.17;3.30;;;;;;;29.30;34.54;101778.97;5056582;28;20188;-73
2022/06/28 08:09:38;;;;;;;4.57;3.40;;;;;;;29.03;34.92;101779.44;5057388;28;20427;-72
2022/06/28 08:12:04;;;;;;;4.10;3.33;;;;;;;30.29;33.31;101769.03;5041137;28;20293;-73
2022/06/28 08:14:30;;;;;;;3.60;3.10;;;;;;;30.13;34.03;101777.13;5055700;28;20598;-72
2022/06/28 08:16:56;;;;;;;4.80;3.33;;;;;;;29.65;33.99;101773.53;5051889;28;20428;-73
2022/06/28 08:19:22;;;;;;;4.30;3.33;;;;;;;29.73;33.86;101782.03;5056629;28;20598;-73
2022/06/28 08:21:49;;;;;;;7.33;3.67;;;;;;;29.72;33.85;101780.28;5049695;28;20515;-72
2022/06/28 08:24:14;;;;;;;4.10;3.00;;;;;;;30.10;32.77;101782.69;5054335;28;20189;-72
2022/06/28 08:26:42;;;;;;;3.67;3.37;;;;;;;27.91;35.91;101786.63;5056232;28;20428;-73
2022/06/28 08:29:12;;;;;;;4.00;3.60;;;;;;;25.57;40.53;101803.34;5054690;28;20421;-73
2022/06/28 08:31:38;;;;;;;6.57;3.37;;;;;;;26.53;37.26;101791.69;5057241;28;20431;-72
2022/06/28 08:34:03;;;;;;;3.93;3.53;;;;;;;27.76;35.15;101785.53;5051547;28;20427;-71
2022/06/28 08:36:29;;;;;;;4.57;3.10;;;;;;;28.95;33.06;101778.97;5056615;28;20165;-70
2022/06/28 08:38:54;;;;;;;4.10;2.90;;;;;;;29.14;32.81;101787.78;5058256;28;20223;-71
2022/06/28 08:41:20;;;;;;;4.33;3.13;;;;;;;29.99;31.64;101796.72;5054260;28;20217;-73
2022/06/28 08:43:45;;;;;;;3.10;2.80;;;;;;;30.33;30.87;101794.81;5056855;28;20209;-74
2022/06/28 08:46:11;;;;;;;4.10;3.03;;;;;;;29.24;31.81;101794.41;5060125;28;20256;-73
2022/06/28 08:48:41;;;;;;;4.90;2.97;;;;;;;29.18;31.53;101805.47;5056201;28;20864;-73
2022/06/28 08:51:09;;;;;;;3.33;2.67;;;;;;;29.36;30.71;101794.75;5048613;28;20173;-73
2022/06/28 08:53:37;;;;;;;3.50;2.70;;;;;;;27.43;32.37;101806.69;5055485;28;20785;-72
2022/06/28 08:56:05;;;;;;;4.30;2.80;;;;;;;26.67;35.75;101804.47;5058688;28;20471;-71
2022/06/28 08:58:30;;;;;;;3.80;2.97;;;;;;;28.77;31.91;101800.44;5060192;28;20416;-70
2022/06/28 09:00:56;;;;;;;6.07;3.33;;;;;;;28.11;33.30;101806.31;5058867;28;20701;-72
2022/06/28 09:03:22;;;;;;;3.30;2.90;;;;;;;28.38;33.22;101804.09;5049754;28;20218;-73
2022/06/28 09:05:48;;;;;;;4.20;2.50;;;;;;;29.62;30.64;101800.53;5053868;28;20184;-71
2022/06/28 09:08:13;;;;;;;3.80;3.10;;;;;;;29.10;31.27;101796.94;5028194;28;20503;-74
2022/06/28 09:10:39;;;;;;;3.57;2.80;;;;;;;29.82;30.75;101800.34;5059017;28;20439;-73
2022/06/28 09:13:14;;;;;;;3.17;2.87;;;;;;;28.73;30.93;101798.84;5058325;28;20227;-73
2022/06/28 09:15:47;;;;;;;3.93;2.77;;;;;;;29.32;30.97;101785.13;5047301;28;20627;-74
2022/06/28 09:18:13;;;;;;;2.73;2.53;;;;;;;29.40;31.38;101790.94;5055954;28;20434;-72
2022/06/28 09:20:38;;;;;;;3.20;2.90;;;;;;;29.53;31.02;101788.47;5058560;28;20435;-73
2022/06/28 09:23:04;;;;;;;4.57;2.83;;;;;;;30.14;31.02;101794.13;5058616;28;20284;-71
2022/06/28 09:25:31;;;;;;;3.50;2.63;;;;;;;29.82;30.48;101789.59;5059341;28;20543;-73
2022/06/28 09:27:58;;;;;;;3.10;2.80;;;;;;;30.72;29.19;101790.78;5060188;28;20177;-73
2022/06/28 09:30:26;;;;;;;3.23;2.93;;;;;;;29.73;30.20;101790.09;5047938;28;20459;-72
2022/06/28 09:32:52;;;;;;;4.00;3.17;;;;;;;28.79;31.80;101793.16;5059432;28;20432;-72
2022/06/28 09:35:17;;;;;;;4.03;3.20;;;;;;;28.17;32.32;101797.97;5059439;28;20430;-72
2022/06/28 09:37:47;;;;;;;4.37;3.07;;;;;;;27.14;35.19;101806.97;5059481;28;20178;-73
2022/06/28 09:40:24;;;;;;;4.30;3.23;;;;;;;27.76;33.69;101801.59;5059324;28;20247;-73
2022/06/28 09:43:13;;;;;;;3.80;3.20;;;;;;;26.48;36.07;101799.03;5057856;28;20491;-73
2022/06/28 09:45:46;;;;;;;6.53;3.10;;;;;;;25.82;37.84;101797.13;5052164;28;20447;-72
2022/06/28 09:48:16;;;;;;;5.60;3.27;;;;;;;25.60;38.48;101800.59;5057493;28;20883;-73
2022/06/28 09:50:42;;;;;;;4.10;2.77;;;;;;;25.44;38.06;101796.69;5057576;28;20416;-73
2022/06/28 09:53:08;;;;;;;3.53;2.87;;;;;;;26.97;35.06;101802.38;5044360;28;20436;-71
2022/06/28 09:55:33;;;;;;;3.27;2.70;;;;;;;25.59;37.32;101803.28;5051023;28;20184;-73
2022/06/28 09:58:00;;;;;;;4.10;3.17;;;;;;;26.16;36.43;101802.06;5059902;28;20158;-73
2022/06/28 10:00:26;;;;;;;2.77;2.40;;;;;;;28.55;34.01;101801.47;5058991;28;20221;-73
2022/06/28 10:02:55;;;;;;;3.33;2.83;;;;;;;29.33;30.28;101792.22;5058725;28;20503;-73
2022/06/28 10:05:21;;;;;;;2.43;2.23;;;;;;;31.09;28.01;101784.19;5050957;28;20284;-73
2022/06/28 10:07:47;;;;;;;3.03;2.40;;;;;;;30.18;30.22;101785.81;5056321;28;20519;-73
2022/06/28 10:10:12;;;;;;;3.50;2.83;;;;;;;29.58;30.16;101786.41;5057629;28;20203;-72
2022/06/28 10:15:31;;;;;;;3.70;2.77;;;;;;;30.54;29.74;101776.59;5058358;28;20288;-72
2022/06/28 10:18:18;;;;;;;4.87;4.47;;;;;;;28.27;32.87;101785.00;5051164;28;20427;-71
2022/06/28 10:20:44;;;;;;;3.13;2.47;;;;;;;29.93;30.95;101780.06;5036429;28;20485;-72
2022/06/28 10:23:23;;;;;;;3.37;2.60;;;;;;;30.63;30.01;101780.56;5037231;28;20522;-72
2022/06/28 10:26:08;;;;;;;2.60;2.40;;;;;;;29.30;30.54;101781.66;5038303;28;20170;-73
2022/06/28 10:28:43;;;;;;;3.30;3.00;;;;;;;30.74;28.11;101778.13;5038764;28;20412;-73
2022/06/28 10:31:21;;;;;;;4.57;2.70;;;;;;;30.21;29.08;101780.22;5039083;28;20478;-73
2022/06/28 10:33:48;;;;;;;3.40;2.60;;;;;;;30.18;30.03;101772.34;5038747;28;20459;-72
2022/06/28 10:36:15;;;;;;;2.67;2.47;;;;;;;30.69;30.65;101782.91;5038968;28;20412;-73
2022/06/28 10:39:29;;;;;;;2.87;2.60;;;;;;;31.01;29.84;101777.44;5038166;28;20420;-72
2022/06/28 10:42:01;;;;;;;3.63;2.57;;;;;;;29.27;31.01;101781.78;5033930;28;20708;-72
2022/06/28 10:44:27;;;;;;;4.10;3.67;;;;;;;30.35;30.50;101775.88;5038718;28;20412;-72
2022/06/28 10:47:13;;;;;;;3.97;3.07;;;;;;;28.67;31.87;101783.03;5038680;28;20417;-72
2022/06/28 10:49:48;;;;;;;5.87;2.80;;;;;;;28.75;31.61;101771.94;5038681;28;20412;-72
2022/06/28 10:52:15;;;;;;;3.70;3.13;;;;;;;28.88;31.21;101771.22;5038606;28;20401;-71
2022/06/28 10:55:03;;;;;;;3.00;2.60;;;;;;;29.60;30.71;101772.91;5038456;28;20528;-72
2022/06/28 10:57:39;;;;;;;3.47;2.50;;;;;;;29.07;30.59;101764.91;5028079;28;20417;-72
2022/06/28 11:00:07;;;;;;;2.93;2.67;;;;;;;27.59;32.67;101772.03;5037880;28;20837;-72
2022/06/28 11:02:49;;;;;;;3.60;2.43;;;;;;;29.20;32.00;101766.00;5038410;28;20496;-71
2022/06/28 11:05:14;;;;;;;2.93;2.57;;;;;;;28.62;32.29;101767.16;5038575;28;20531;-74
2022/06/28 11:07:40;;;;;;;2.97;2.23;;;;;;;28.97;31.76;101763.63;5038404;28;20409;-71
2022/06/28 11:10:07;;;;;;;3.23;2.47;;;;;;;29.36;31.05;101762.50;5038648;28;20174;-71
2022/06/28 11:12:34;;;;;;;3.43;3.00;;;;;;;28.90;32.39;101755.91;5037952;28;20167;-72
2022/06/28 11:15:09;;;;;;;2.70;2.50;;;;;;;29.42;30.96;101754.13;5038133;28;20511;-72
2022/06/28 11:17:43;;;;;;;4.70;2.80;;;;;;;30.24;30.62;101750.50;5038058;28;20845;-72
2022/06/28 11:20:13;;;;;;;5.43;2.73;;;;;;;29.04;31.18;101762.38;5038247;28;20421;-72
2022/06/28 11:22:40;;;;;;;4.90;3.00;;;;;;;29.99;30.72;101758.22;5038105;28;20854;-72
2022/06/28 11:25:08;;;;;;;7.27;2.90;;;;;;;28.40;33.08;101765.53;5054189;28;20420;-72
2022/06/28 11:27:33;;;;;;;4.00;3.43;;;;;;;29.40;31.43;101759.59;5038355;28;20441;-72
2022/06/28 11:30:02;;;;;;;4.20;2.80;;;;;;;28.07;32.35;101762.69;5038562;28;20456;-73